createdAt,value
2018-03-18T00:00:50.448Z,937.12
2018-03-18T00:01:50.458Z,937.1
2018-03-18T00:02:50.470Z,937.17
2018-03-18T00:03:50.483Z,937.13
2018-03-18T00:04:50.495Z,937.16
2018-03-18T00:05:50.508Z,937.18
2018-03-18T00:06:50.518Z,937.2
2018-03-18T00:07:50.532Z,937.17
2018-03-18T00:08:50.542Z,937.21
2018-03-18T00:09:50.555Z,937.16
2018-03-18T00:10:50.567Z,937.16
2018-03-18T00:11:50.579Z,937.21
2018-03-18T00:12:50.589Z,937.19
2018-03-18T00:13:50.601Z,937.17
2018-03-18T00:14:50.614Z,937.19
2018-03-18T00:15:50.628Z,937.22
2018-03-18T00:16:50.637Z,937.16
2018-03-18T00:17:50.650Z,937.12
2018-03-18T00:18:50.663Z,937.12
2018-03-18T00:19:50.673Z,937.2
2018-03-18T00:20:50.686Z,937.23
2018-03-18T00:21:50.698Z,937.24
2018-03-18T00:22:50.710Z,937.23
2018-03-18T00:23:50.724Z,937.17
2018-03-18T00:24:50.734Z,937.26
2018-03-18T00:25:50.746Z,937.24
2018-03-18T00:26:50.757Z,937.23
2018-03-18T00:27:50.770Z,937.18
2018-03-18T00:28:50.781Z,937.21
2018-03-18T00:29:50.794Z,937.24
2018-03-18T00:30:50.806Z,937.24
2018-03-18T00:31:50.835Z,937.24
2018-03-18T00:32:50.830Z,937.25
2018-03-18T00:33:50.841Z,937.19
2018-03-18T00:34:50.854Z,937.27
2018-03-18T00:35:50.865Z,937.23
2018-03-18T00:36:50.876Z,937.23
2018-03-18T00:37:50.889Z,937.22
2018-03-18T00:38:50.903Z,937.26
2018-03-18T00:39:50.911Z,937.25
2018-03-18T00:40:50.924Z,937.33
2018-03-18T00:41:50.935Z,937.23
2018-03-18T00:42:50.947Z,937.23
2018-03-18T00:43:50.959Z,937.28
2018-03-18T00:44:50.971Z,937.29
2018-03-18T00:45:50.986Z,937.28
2018-03-18T00:46:50.994Z,937.29
2018-03-18T00:47:51.006Z,937.25
2018-03-18T00:48:51.017Z,937.27
2018-03-18T00:49:51.033Z,937.25
2018-03-18T00:50:51.042Z,937.28
2018-03-18T00:51:51.052Z,937.25
2018-03-18T00:52:51.070Z,937.29
2018-03-18T00:53:51.076Z,937.34
2018-03-18T00:54:51.096Z,937.31
2018-03-18T00:55:51.101Z,937.37
2018-03-18T00:56:51.112Z,937.42
2018-03-18T00:57:51.126Z,937.43
2018-03-18T00:58:51.285Z,937.4
2018-03-18T00:59:51.148Z,937.48
2018-03-18T01:00:51.159Z,937.44
2018-03-18T01:01:51.172Z,937.51
2018-03-18T01:02:51.183Z,937.55
2018-03-18T01:03:51.195Z,937.52
2018-03-18T01:04:51.207Z,937.52
2018-03-18T01:05:51.219Z,937.55
2018-03-18T01:06:51.232Z,937.55
2018-03-18T01:07:51.246Z,937.57
2018-03-18T01:08:51.255Z,937.59
2018-03-18T01:09:51.268Z,937.59
2018-03-18T01:10:51.281Z,937.59
2018-03-18T01:11:51.291Z,937.6
2018-03-18T01:12:51.302Z,937.59
2018-03-18T01:13:51.366Z,937.66
2018-03-18T01:14:51.326Z,937.62
2018-03-18T01:15:51.339Z,937.64
2018-03-18T01:16:51.353Z,937.68
2018-03-18T01:17:51.363Z,937.68
2018-03-18T01:18:51.375Z,937.7
2018-03-18T01:19:51.389Z,937.73
2018-03-18T01:20:51.401Z,937.73
2018-03-18T01:21:51.413Z,937.65
2018-03-18T01:22:51.424Z,937.68
2018-03-18T01:23:51.437Z,937.69
2018-03-18T01:24:51.449Z,937.7
2018-03-18T01:25:51.461Z,937.71
2018-03-18T01:26:51.473Z,937.72
2018-03-18T01:27:51.486Z,937.68
2018-03-18T01:28:51.517Z,937.7
2018-03-18T01:29:51.510Z,937.7
2018-03-18T01:30:51.522Z,937.68
2018-03-18T01:31:51.533Z,937.68
2018-03-18T01:32:51.545Z,937.71
2018-03-18T01:33:51.562Z,937.69
2018-03-18T01:34:51.569Z,937.66
2018-03-18T01:35:51.583Z,937.68
2018-03-18T01:36:51.600Z,937.66
2018-03-18T01:37:51.608Z,937.67
2018-03-18T01:38:51.619Z,937.66
2018-03-18T01:39:51.629Z,937.65
2018-03-18T01:40:51.643Z,937.67
2018-03-18T01:41:51.654Z,937.64
2018-03-18T01:42:51.673Z,937.61
2018-03-18T01:43:51.678Z,937.63
2018-03-18T01:44:51.693Z,937.63
2018-03-18T01:45:51.702Z,937.62
2018-03-18T01:46:51.713Z,937.65
2018-03-18T01:47:51.725Z,937.68
2018-03-18T01:48:51.737Z,937.61
2018-03-18T01:49:51.750Z,937.63
2018-03-18T01:50:51.761Z,937.64
2018-03-18T01:51:51.773Z,937.6
2018-03-18T01:52:51.784Z,937.61
2018-03-18T01:53:51.797Z,937.61
2018-03-18T01:54:51.808Z,937.57
2018-03-18T01:55:51.822Z,937.59
2018-03-18T01:56:51.833Z,937.59
2018-03-18T01:57:51.847Z,937.56
2018-03-18T01:58:51.858Z,937.61
2018-03-18T01:59:51.869Z,937.6
2018-03-18T02:00:51.882Z,937.5
2018-03-18T02:01:51.896Z,937.53
2018-03-18T02:02:51.907Z,937.54
2018-03-18T02:03:51.917Z,937.52
2018-03-18T02:04:51.929Z,937.5
2018-03-18T02:05:51.942Z,937.56
2018-03-18T02:06:51.953Z,937.47
2018-03-18T02:07:51.966Z,937.56
2018-03-18T02:08:51.978Z,937.5
2018-03-18T02:09:51.989Z,937.46
2018-03-18T02:10:52.002Z,937.44
2018-03-18T02:11:52.014Z,937.4
2018-03-18T02:12:52.026Z,937.38
2018-03-18T02:13:52.087Z,937.28
2018-03-18T02:14:52.049Z,937.31
2018-03-18T02:15:52.061Z,937.25
2018-03-18T02:16:52.073Z,937.24
2018-03-18T02:17:52.084Z,937.18
2018-03-18T02:18:52.096Z,937.2
2018-03-18T02:19:52.107Z,937.16
2018-03-18T02:20:52.120Z,937.18
2018-03-18T02:21:52.132Z,937.17
2018-03-18T02:22:52.143Z,937.18
2018-03-18T02:23:52.155Z,937.16
2018-03-18T02:24:52.166Z,937.13
2018-03-18T02:25:52.200Z,937.21
2018-03-18T02:26:52.190Z,937.15
2018-03-18T02:27:52.201Z,937.27
2018-03-18T02:28:52.212Z,937.23
2018-03-18T02:29:52.224Z,937.21
2018-03-18T02:30:52.238Z,937.25
2018-03-18T02:31:52.247Z,937.26
2018-03-18T02:32:52.268Z,937.36
2018-03-18T02:33:52.267Z,937.35
2018-03-18T02:34:52.279Z,937.34
2018-03-18T02:35:52.292Z,937.3
2018-03-18T02:36:52.306Z,937.33
2018-03-18T02:37:52.316Z,937.35
2018-03-18T02:38:52.327Z,937.33
2018-03-18T02:39:52.345Z,937.38
2018-03-18T02:40:52.399Z,937.33
2018-03-18T02:41:52.362Z,937.33
2018-03-18T02:42:52.373Z,937.34
2018-03-18T02:43:52.385Z,937.36
2018-03-18T02:44:52.396Z,937.38
2018-03-18T02:45:52.407Z,937.37
2018-03-18T02:46:52.420Z,937.34
2018-03-18T02:47:52.432Z,937.38
2018-03-18T02:48:52.444Z,937.41
2018-03-18T02:49:52.454Z,937.37
2018-03-18T02:50:52.464Z,937.37
2018-03-18T02:51:52.480Z,937.42
2018-03-18T02:52:52.502Z,937.35
2018-03-18T02:53:52.502Z,937.39
2018-03-18T02:54:52.508Z,937.41
2018-03-18T02:55:52.521Z,937.41
2018-03-18T02:56:52.531Z,937.45
2018-03-18T02:57:52.544Z,937.46
2018-03-18T02:58:52.607Z,937.45
2018-03-18T02:59:52.566Z,937.41
2018-03-18T03:00:52.576Z,937.48
2018-03-18T03:01:52.589Z,937.47
2018-03-18T03:02:52.600Z,937.5
2018-03-18T03:03:52.612Z,937.48
2018-03-18T03:04:52.624Z,937.48
2018-03-18T03:05:52.635Z,937.48
2018-03-18T03:06:52.652Z,937.48
2018-03-18T03:07:52.658Z,937.49
2018-03-18T03:08:52.691Z,937.5
2018-03-18T03:09:52.680Z,937.49
2018-03-18T03:10:52.694Z,937.51
2018-03-18T03:11:52.703Z,937.48
2018-03-18T03:12:52.716Z,937.49
2018-03-18T03:13:52.727Z,937.49
2018-03-18T03:14:52.738Z,937.54
2018-03-18T03:15:52.754Z,937.47
2018-03-18T03:16:52.762Z,937.51
2018-03-18T03:17:52.773Z,937.5
2018-03-18T03:18:52.784Z,937.51
2018-03-18T03:19:52.796Z,937.51
2018-03-18T03:20:52.807Z,937.54
2018-03-18T03:21:52.819Z,937.54
2018-03-18T03:22:52.829Z,937.52
2018-03-18T03:23:52.841Z,937.53
2018-03-18T03:24:52.852Z,937.53
2018-03-18T03:25:52.864Z,937.56
2018-03-18T03:26:52.877Z,937.57
2018-03-18T03:27:52.888Z,937.52
2018-03-18T03:28:52.899Z,937.56
2018-03-18T03:29:52.909Z,937.56
2018-03-18T03:30:52.922Z,937.57
2018-03-18T03:31:52.933Z,937.54
2018-03-18T03:32:52.945Z,937.59
2018-03-18T03:33:53.006Z,937.63
2018-03-18T03:34:52.966Z,937.63
2018-03-18T03:35:52.979Z,937.62
2018-03-18T03:36:52.989Z,937.63
2018-03-18T03:37:53.000Z,937.65
2018-03-18T03:38:53.011Z,937.59
2018-03-18T03:39:53.023Z,937.63
2018-03-18T03:40:53.036Z,937.65
2018-03-18T03:41:53.046Z,937.66
2018-03-18T03:42:53.058Z,937.65
2018-03-18T03:43:53.081Z,937.65
2018-03-18T03:44:53.079Z,937.67
2018-03-18T03:45:53.091Z,937.69
2018-03-18T03:46:53.102Z,937.68
2018-03-18T03:47:53.112Z,937.69
2018-03-18T03:48:53.173Z,937.7
2018-03-18T03:49:53.134Z,937.7
2018-03-18T03:50:53.150Z,937.73
2018-03-18T03:51:53.158Z,937.71
2018-03-18T03:52:53.168Z,937.75
2018-03-18T03:53:53.180Z,937.75
2018-03-18T03:54:53.193Z,937.75
2018-03-18T03:55:53.203Z,937.78
2018-03-18T03:56:53.215Z,937.74
2018-03-18T03:57:53.225Z,937.75
2018-03-18T03:58:53.235Z,937.76
2018-03-18T03:59:53.248Z,937.74
2018-03-18T04:00:53.260Z,937.78
2018-03-18T04:01:53.272Z,937.75
2018-03-18T04:02:53.280Z,937.79
2018-03-18T04:03:53.294Z,937.8
2018-03-18T04:04:53.305Z,937.8
2018-03-18T04:05:53.318Z,937.8
2018-03-18T04:06:53.330Z,937.83
2018-03-18T04:07:53.340Z,937.84
2018-03-18T04:08:53.355Z,937.83
2018-03-18T04:09:53.363Z,937.85
2018-03-18T04:10:53.377Z,937.81
2018-03-18T04:11:53.382Z,937.83
2018-03-18T04:12:53.395Z,937.84
2018-03-18T04:13:53.406Z,937.84
2018-03-18T04:14:53.416Z,937.86
2018-03-18T04:15:53.429Z,937.86
2018-03-18T04:16:53.439Z,937.85
2018-03-18T04:17:53.451Z,937.88
2018-03-18T04:18:53.461Z,937.83
2018-03-18T04:19:53.473Z,937.86
2018-03-18T04:20:53.484Z,937.88
2018-03-18T04:21:53.496Z,937.88
2018-03-18T04:22:53.556Z,937.92
2018-03-18T04:23:53.518Z,937.87
2018-03-18T04:24:53.529Z,937.9
2018-03-18T04:25:53.539Z,937.91
2018-03-18T04:26:53.553Z,937.93
2018-03-18T04:27:53.564Z,937.94
2018-03-18T04:28:53.574Z,937.92
2018-03-18T04:29:53.586Z,937.94
2018-03-18T04:30:53.598Z,937.92
2018-03-18T04:31:53.608Z,937.9
2018-03-18T04:32:53.618Z,937.88
2018-03-18T04:33:53.683Z,937.87
2018-03-18T04:34:53.642Z,937.89
2018-03-18T04:35:53.653Z,937.92
2018-03-18T04:36:53.665Z,937.93
2018-03-18T04:37:53.725Z,937.93
2018-03-18T04:38:53.687Z,937.92
2018-03-18T04:39:53.699Z,937.94
2018-03-18T04:40:53.709Z,937.94
2018-03-18T04:41:53.721Z,937.92
2018-03-18T04:42:53.732Z,937.94
2018-03-18T04:43:53.743Z,937.97
2018-03-18T04:44:53.754Z,937.96
2018-03-18T04:45:53.767Z,937.9
2018-03-18T04:46:53.776Z,937.94
2018-03-18T04:47:53.788Z,937.91
2018-03-18T04:48:53.802Z,937.93
2018-03-18T04:49:53.813Z,937.94
2018-03-18T04:50:53.822Z,937.9
2018-03-18T04:51:53.834Z,937.97
2018-03-18T04:52:53.846Z,937.96
2018-03-18T04:53:53.869Z,937.92
2018-03-18T04:54:53.869Z,937.92
2018-03-18T04:55:53.888Z,937.96
2018-03-18T04:56:53.897Z,937.95
2018-03-18T04:57:53.901Z,937.96
2018-03-18T04:58:53.918Z,937.99
2018-03-18T04:59:53.924Z,937.99
2018-03-18T05:00:53.934Z,937.97
2018-03-18T05:01:53.961Z,937.94
2018-03-18T05:02:53.954Z,937.99
2018-03-18T05:03:53.968Z,938.02
2018-03-18T05:04:53.978Z,938
2018-03-18T05:05:53.990Z,937.98
2018-03-18T05:06:54.050Z,938.05
2018-03-18T05:07:54.012Z,938.06
2018-03-18T05:08:54.027Z,938.04
2018-03-18T05:09:54.033Z,938.04
2018-03-18T05:10:54.045Z,938.07
2018-03-18T05:11:54.056Z,938.01
2018-03-18T05:12:54.066Z,938
2018-03-18T05:13:54.078Z,938.04
2018-03-18T05:14:54.089Z,938.03
2018-03-18T05:15:54.104Z,938.07
2018-03-18T05:16:54.112Z,938.05
2018-03-18T05:17:54.121Z,938.08
2018-03-18T05:18:54.132Z,938.04
2018-03-18T05:19:54.145Z,938.09
2018-03-18T05:20:54.154Z,938.06
2018-03-18T05:21:54.164Z,938.08
2018-03-18T05:22:54.176Z,938.05
2018-03-18T05:23:54.235Z,938.07
2018-03-18T05:24:54.197Z,938.11
2018-03-18T05:25:54.208Z,938.12
2018-03-18T05:26:54.219Z,938.2
2018-03-18T05:27:54.229Z,938.21
2018-03-18T05:28:54.241Z,938.21
2018-03-18T05:29:54.252Z,938.27
2018-03-18T05:30:54.262Z,938.23
2018-03-18T05:31:54.276Z,938.29
2018-03-18T05:32:54.283Z,938.29
2018-03-18T05:33:54.298Z,938.29
2018-03-18T05:34:54.304Z,938.31
2018-03-18T05:35:54.317Z,938.29
2018-03-18T05:36:54.327Z,938.3
2018-03-18T05:37:54.337Z,938.35
2018-03-18T05:38:54.399Z,938.33
2018-03-18T05:39:54.360Z,938.36
2018-03-18T05:40:54.371Z,938.37
2018-03-18T05:41:54.380Z,938.38
2018-03-18T05:42:54.392Z,938.36
2018-03-18T05:43:54.404Z,938.37
2018-03-18T05:44:54.415Z,938.39
2018-03-18T05:45:54.425Z,938.36
2018-03-18T05:46:54.436Z,938.4
2018-03-18T05:47:54.448Z,938.41
2018-03-18T05:48:54.456Z,938.45
2018-03-18T05:49:54.467Z,938.39
2018-03-18T05:50:54.479Z,938.44
2018-03-18T05:51:54.491Z,938.46
2018-03-18T05:52:54.502Z,938.5
2018-03-18T05:53:54.763Z,938.53
2018-03-18T05:54:54.522Z,938.58
2018-03-18T05:55:54.533Z,938.57
2018-03-18T05:56:54.545Z,938.6
2018-03-18T05:57:54.556Z,938.61
2018-03-18T05:58:54.572Z,938.61
2018-03-18T05:59:54.578Z,938.66
2018-03-18T06:00:54.589Z,938.66
2018-03-18T06:01:54.601Z,938.73
2018-03-18T06:02:54.612Z,938.72
2018-03-18T06:03:54.623Z,938.74
2018-03-18T06:04:54.632Z,938.79
2018-03-18T06:05:54.644Z,938.82
2018-03-18T06:06:54.656Z,938.83
2018-03-18T06:07:54.665Z,938.8
2018-03-18T06:08:54.678Z,938.82
2018-03-18T06:09:54.689Z,938.82
2018-03-18T06:10:54.700Z,938.86
2018-03-18T06:11:54.711Z,938.92
2018-03-18T06:12:54.721Z,938.9
2018-03-18T06:13:54.733Z,938.86
2018-03-18T06:14:54.744Z,938.9
2018-03-18T06:15:54.755Z,938.92
2018-03-18T06:16:54.766Z,938.92
2018-03-18T06:17:54.834Z,938.96
2018-03-18T06:18:54.789Z,938.97
2018-03-18T06:19:54.800Z,938.98
2018-03-18T06:20:54.816Z,938.96
2018-03-18T06:21:54.834Z,938.95
2018-03-18T06:22:54.834Z,938.94
2018-03-18T06:23:54.846Z,938.97
2018-03-18T06:24:54.887Z,939.01
2018-03-18T06:25:54.867Z,939.03
2018-03-18T06:26:54.879Z,939.01
2018-03-18T06:27:54.890Z,939.01
2018-03-18T06:28:54.902Z,939.09
2018-03-18T06:29:54.912Z,939.11
2018-03-18T06:30:54.925Z,939.04
2018-03-18T06:31:54.935Z,939.08
2018-03-18T06:32:54.946Z,939.07
2018-03-18T06:33:54.973Z,939.07
2018-03-18T06:34:54.969Z,939.1
2018-03-18T06:35:54.979Z,939.08
2018-03-18T06:36:55.041Z,939.1
2018-03-18T06:37:55.002Z,939.11
2018-03-18T06:38:55.014Z,939.14
2018-03-18T06:39:55.025Z,939.13
2018-03-18T06:40:55.041Z,939.1
2018-03-18T06:41:55.047Z,939.12
2018-03-18T06:42:55.059Z,939.18
2018-03-18T06:43:55.069Z,939.2
2018-03-18T06:44:55.079Z,939.21
2018-03-18T06:45:55.091Z,939.23
2018-03-18T06:46:55.103Z,939.24
2018-03-18T06:47:55.116Z,939.25
2018-03-18T06:48:55.124Z,939.28
2018-03-18T06:49:55.136Z,939.27
2018-03-18T06:50:55.151Z,939.31
2018-03-18T06:51:55.408Z,939.37
2018-03-18T06:52:55.181Z,939.36
2018-03-18T06:53:55.180Z,939.39
2018-03-18T06:54:55.192Z,939.4
2018-03-18T06:55:55.204Z,939.42
2018-03-18T06:56:55.215Z,939.43
2018-03-18T06:57:55.224Z,939.49
2018-03-18T06:58:55.241Z,939.54
2018-03-18T06:59:55.249Z,939.54
2018-03-18T07:00:55.259Z,939.52
2018-03-18T07:01:55.272Z,939.53
2018-03-18T07:02:55.282Z,939.57
2018-03-18T07:03:55.292Z,939.59
2018-03-18T07:04:55.304Z,939.67
2018-03-18T07:05:55.314Z,939.67
2018-03-18T07:06:55.327Z,939.68
2018-03-18T07:07:55.337Z,939.72
2018-03-18T07:08:55.348Z,939.72
2018-03-18T07:09:55.360Z,939.76
2018-03-18T07:10:55.421Z,939.74
2018-03-18T07:11:55.382Z,939.75
2018-03-18T07:12:55.392Z,939.78
2018-03-18T07:13:55.408Z,939.78
2018-03-18T07:14:55.416Z,939.81
2018-03-18T07:15:55.431Z,939.8
2018-03-18T07:16:55.439Z,939.82
2018-03-18T07:17:55.448Z,939.84
2018-03-18T07:18:55.460Z,939.83
2018-03-18T07:19:55.471Z,939.89
2018-03-18T07:20:55.482Z,939.88
2018-03-18T07:21:55.494Z,939.91
2018-03-18T07:22:55.505Z,939.92
2018-03-18T07:23:55.516Z,939.97
2018-03-18T07:24:55.527Z,939.95
2018-03-18T07:25:55.538Z,940.02
2018-03-18T07:26:55.550Z,940.04
2018-03-18T07:27:55.560Z,940.07
2018-03-18T07:28:55.571Z,940.08
2018-03-18T07:29:55.582Z,940.06
2018-03-18T07:30:55.593Z,940.11
2018-03-18T07:31:55.604Z,940.08
2018-03-18T07:32:55.616Z,940.11
2018-03-18T07:33:55.627Z,940.12
2018-03-18T07:34:55.639Z,940.17
2018-03-18T07:35:55.671Z,940.17
2018-03-18T07:36:55.661Z,940.21
2018-03-18T07:37:55.673Z,940.22
2018-03-18T07:38:55.684Z,940.22
2018-03-18T07:39:55.746Z,940.2
2018-03-18T07:40:55.707Z,940.25
2018-03-18T07:41:55.718Z,940.18
2018-03-18T07:42:55.729Z,940.22
2018-03-18T07:43:55.741Z,940.23
2018-03-18T07:44:55.752Z,940.26
2018-03-18T07:45:55.761Z,940.25
2018-03-18T07:46:55.774Z,940.24
2018-03-18T07:47:55.789Z,940.26
2018-03-18T07:48:55.799Z,940.26
2018-03-18T07:49:55.809Z,940.25
2018-03-18T07:50:55.819Z,940.25
2018-03-18T07:51:55.855Z,940.27
2018-03-18T07:52:55.841Z,940.25
2018-03-18T07:53:55.854Z,940.26
2018-03-18T07:54:55.916Z,940.29
2018-03-18T07:55:55.879Z,940.32
2018-03-18T07:56:55.888Z,940.3
2018-03-18T07:57:55.899Z,940.33
2018-03-18T07:58:55.922Z,940.35
2018-03-18T07:59:55.922Z,940.33
2018-03-18T08:00:55.939Z,940.3
2018-03-18T08:01:55.955Z,940.34
2018-03-18T08:02:55.957Z,940.35
2018-03-18T08:03:55.970Z,940.35
2018-03-18T08:04:55.979Z,940.32
2018-03-18T08:05:55.992Z,940.32
2018-03-18T08:06:56.002Z,940.37
2018-03-18T08:07:56.014Z,940.44
2018-03-18T08:08:56.023Z,940.39
2018-03-18T08:09:56.034Z,940.42
2018-03-18T08:10:56.050Z,940.45
2018-03-18T08:11:56.055Z,940.39
2018-03-18T08:12:56.068Z,940.46
2018-03-18T08:13:56.079Z,940.53
2018-03-18T08:14:56.091Z,940.52
2018-03-18T08:15:56.102Z,940.5
2018-03-18T08:16:56.112Z,940.49
2018-03-18T08:17:56.124Z,940.5
2018-03-18T08:18:56.135Z,940.49
2018-03-18T08:19:56.153Z,940.54
2018-03-18T08:20:56.186Z,940.55
2018-03-18T08:21:56.168Z,940.52
2018-03-18T08:22:56.178Z,940.56
2018-03-18T08:23:56.191Z,940.53
2018-03-18T08:24:56.201Z,940.53
2018-03-18T08:25:56.220Z,940.52
2018-03-18T08:26:56.274Z,940.56
2018-03-18T08:27:56.236Z,940.54
2018-03-18T08:28:56.249Z,940.6
2018-03-18T08:29:56.261Z,940.59
2018-03-18T08:30:56.274Z,940.57
2018-03-18T08:31:56.281Z,940.61
2018-03-18T08:32:56.292Z,940.56
2018-03-18T08:33:56.303Z,940.68
2018-03-18T08:34:56.317Z,940.66
2018-03-18T08:35:56.388Z,940.64
2018-03-18T08:36:56.339Z,940.63
2018-03-18T08:37:56.356Z,940.66
2018-03-18T08:38:56.364Z,940.68
2018-03-18T08:39:56.375Z,940.67
2018-03-18T08:40:56.386Z,940.71
2018-03-18T08:41:56.410Z,940.71
2018-03-18T08:42:56.566Z,940.7
2018-03-18T08:43:56.424Z,940.7
2018-03-18T08:44:56.435Z,940.73
2018-03-18T08:45:56.449Z,940.74
2018-03-18T08:46:56.461Z,940.74
2018-03-18T08:47:56.474Z,940.76
2018-03-18T08:48:56.487Z,940.79
2018-03-18T08:49:56.499Z,940.83
2018-03-18T08:50:56.512Z,940.84
2018-03-18T08:51:56.524Z,940.84
2018-03-18T08:52:56.539Z,940.88
2018-03-18T08:53:56.553Z,940.85
2018-03-18T08:54:56.563Z,940.87
2018-03-18T08:55:56.583Z,940.9
2018-03-18T08:56:56.592Z,940.97
2018-03-18T08:57:56.606Z,940.86
2018-03-18T08:58:56.618Z,940.9
2018-03-18T08:59:56.682Z,940.87
2018-03-18T09:00:56.645Z,940.88
2018-03-18T09:01:56.664Z,940.93
2018-03-18T09:02:56.673Z,940.93
2018-03-18T09:03:56.688Z,940.92
2018-03-18T09:04:56.701Z,940.89
2018-03-18T09:05:56.717Z,940.88
2018-03-18T09:06:56.727Z,940.87
2018-03-18T09:07:56.743Z,940.92
2018-03-18T09:08:56.758Z,940.92
2018-03-18T09:09:56.770Z,940.87
2018-03-18T09:10:56.782Z,940.83
2018-03-18T09:11:56.798Z,940.88
2018-03-18T09:12:56.810Z,940.84
2018-03-18T09:13:56.822Z,940.86
2018-03-18T09:14:56.887Z,940.85
2018-03-18T09:15:56.850Z,940.89
2018-03-18T09:16:56.863Z,940.87
2018-03-18T09:17:56.875Z,940.86
2018-03-18T09:18:56.889Z,940.86
2018-03-18T09:19:56.902Z,940.85
2018-03-18T09:20:56.916Z,940.89
2018-03-18T09:21:56.929Z,940.86
2018-03-18T09:22:56.945Z,940.91
2018-03-18T09:23:56.956Z,940.97
2018-03-18T09:24:56.968Z,940.99
2018-03-18T09:25:56.982Z,940.96
2018-03-18T09:26:56.995Z,940.95
2018-03-18T09:27:57.013Z,940.96
2018-03-18T09:28:57.023Z,940.96
2018-03-18T09:29:57.034Z,941.01
2018-03-18T09:30:57.048Z,940.98
2018-03-18T09:31:57.061Z,940.99
2018-03-18T09:32:57.076Z,941.06
2018-03-18T09:33:57.136Z,941.08
2018-03-18T09:34:57.099Z,941.04
2018-03-18T09:35:57.119Z,941.06
2018-03-18T09:36:57.126Z,941.11
2018-03-18T09:37:57.142Z,941.08
2018-03-18T09:38:57.154Z,941.09
2018-03-18T09:39:57.165Z,941.12
2018-03-18T09:40:57.178Z,941.15
2018-03-18T09:41:57.190Z,941.14
2018-03-18T09:42:57.203Z,941.16
2018-03-18T09:43:57.223Z,941.17
2018-03-18T09:44:57.229Z,941.21
2018-03-18T09:45:57.240Z,941.2
2018-03-18T09:46:57.253Z,941.21
2018-03-18T09:47:57.267Z,941.19
2018-03-18T09:48:57.280Z,941.19
2018-03-18T09:49:57.292Z,941.23
2018-03-18T09:50:57.305Z,941.23
2018-03-18T09:51:57.319Z,941.29
2018-03-18T09:52:57.332Z,941.28
2018-03-18T09:53:57.343Z,941.3
2018-03-18T09:54:57.358Z,941.33
2018-03-18T09:55:57.369Z,941.32
2018-03-18T09:56:57.380Z,941.36
2018-03-18T09:57:57.393Z,941.43
2018-03-18T09:58:57.406Z,941.42
2018-03-18T09:59:57.484Z,941.39
2018-03-18T10:00:57.437Z,941.39
2018-03-18T10:01:57.449Z,941.39
2018-03-18T10:02:57.462Z,941.37
2018-03-18T10:03:57.476Z,941.37
2018-03-18T10:04:57.487Z,941.39
2018-03-18T10:05:57.502Z,941.48
2018-03-18T10:06:57.525Z,941.38
2018-03-18T10:07:57.528Z,941.41
2018-03-18T10:08:57.541Z,941.38
2018-03-18T10:09:57.556Z,941.44
2018-03-18T10:10:57.568Z,941.37
2018-03-18T10:11:57.582Z,941.42
2018-03-18T10:12:57.595Z,941.39
2018-03-18T10:13:57.621Z,941.35
2018-03-18T10:14:57.638Z,941.37
2018-03-18T10:15:57.634Z,941.4
2018-03-18T10:16:57.654Z,941.44
2018-03-18T10:17:57.662Z,941.42
2018-03-18T10:18:57.675Z,941.46
2018-03-18T10:19:57.689Z,941.44
2018-03-18T10:20:57.704Z,941.5
2018-03-18T10:21:57.727Z,941.47
2018-03-18T10:22:57.729Z,941.47
2018-03-18T10:23:57.743Z,941.47
2018-03-18T10:24:57.758Z,941.46
2018-03-18T10:25:57.771Z,941.49
2018-03-18T10:26:57.784Z,941.49
2018-03-18T10:27:57.799Z,941.48
2018-03-18T10:28:57.815Z,941.51
2018-03-18T10:29:57.827Z,941.55
2018-03-18T10:30:57.839Z,941.53
2018-03-18T10:31:57.902Z,941.54
2018-03-18T10:32:57.867Z,941.49
2018-03-18T10:33:57.878Z,941.51
2018-03-18T10:34:57.893Z,941.53
2018-03-18T10:35:57.907Z,941.51
2018-03-18T10:36:58.004Z,941.5
2018-03-18T10:37:57.931Z,941.54
2018-03-18T10:38:57.946Z,941.56
2018-03-18T10:39:57.959Z,941.5
2018-03-18T10:40:57.979Z,941.49
2018-03-18T10:41:58.045Z,941.48
2018-03-18T10:42:58.000Z,941.43
2018-03-18T10:43:58.014Z,941.46
2018-03-18T10:44:58.027Z,941.49
2018-03-18T10:45:58.041Z,941.47
2018-03-18T10:46:58.104Z,941.5
2018-03-18T10:47:58.069Z,941.48
2018-03-18T10:48:58.081Z,941.46
2018-03-18T10:49:58.097Z,941.45
2018-03-18T10:50:58.122Z,941.46
2018-03-18T10:51:58.124Z,941.44
2018-03-18T10:52:58.138Z,941.5
2018-03-18T10:53:58.152Z,941.44
2018-03-18T10:54:58.167Z,941.48
2018-03-18T10:55:58.180Z,941.53
2018-03-18T10:56:58.194Z,941.53
2018-03-18T10:57:58.210Z,941.51
2018-03-18T10:58:58.223Z,941.56
2018-03-18T10:59:58.236Z,941.57
2018-03-18T11:00:58.255Z,941.52
2018-03-18T11:01:58.266Z,941.52
2018-03-18T11:02:58.284Z,941.5
2018-03-18T11:03:58.298Z,941.53
2018-03-18T11:04:58.308Z,941.53
2018-03-18T11:05:58.321Z,941.59
2018-03-18T11:06:58.339Z,941.59
2018-03-18T11:07:58.350Z,941.59
2018-03-18T11:08:58.389Z,941.58
2018-03-18T11:09:58.380Z,941.57
2018-03-18T11:10:58.393Z,941.55
2018-03-18T11:11:58.407Z,941.54
2018-03-18T11:12:58.422Z,941.54
2018-03-18T11:13:58.435Z,941.53
2018-03-18T11:14:58.449Z,941.52
2018-03-18T11:15:58.464Z,941.49
2018-03-18T11:16:58.478Z,941.54
2018-03-18T11:17:58.491Z,941.51
2018-03-18T11:18:58.504Z,941.53
2018-03-18T11:19:58.539Z,941.57
2018-03-18T11:20:58.535Z,941.58
2018-03-18T11:21:58.547Z,941.48
2018-03-18T11:22:58.563Z,941.55
2018-03-18T11:23:58.578Z,941.54
2018-03-18T11:24:58.590Z,941.54
2018-03-18T11:25:58.608Z,941.57
2018-03-18T11:26:58.620Z,941.53
2018-03-18T11:27:58.635Z,941.57
2018-03-18T11:28:58.647Z,941.59
2018-03-18T11:29:58.663Z,941.61
2018-03-18T11:30:58.678Z,941.55
2018-03-18T11:31:58.691Z,941.62
2018-03-18T11:32:58.708Z,941.61
2018-03-18T11:33:58.720Z,941.64
2018-03-18T11:34:58.736Z,941.66
2018-03-18T11:35:58.778Z,941.62
2018-03-18T11:36:58.763Z,941.65
2018-03-18T11:37:58.840Z,941.65
2018-03-18T11:38:58.793Z,941.66
2018-03-18T11:39:58.810Z,941.66
2018-03-18T11:40:58.821Z,941.65
2018-03-18T11:41:58.836Z,941.64
2018-03-18T11:42:58.849Z,941.63
2018-03-18T11:43:58.864Z,941.63
2018-03-18T11:44:58.879Z,941.63
2018-03-18T11:45:58.894Z,941.58
2018-03-18T11:46:58.908Z,941.64
2018-03-18T11:47:58.923Z,941.62
2018-03-18T11:48:58.957Z,941.6
2018-03-18T11:49:58.953Z,941.58
2018-03-18T11:50:58.966Z,941.57
2018-03-18T11:51:58.982Z,941.55
2018-03-18T11:52:58.997Z,941.56
2018-03-18T11:53:59.011Z,941.56
2018-03-18T11:54:59.029Z,941.58
2018-03-18T11:55:59.070Z,941.55
2018-03-18T11:56:59.057Z,941.53
2018-03-18T11:57:59.069Z,941.56
2018-03-18T11:58:59.086Z,941.53
2018-03-18T11:59:59.100Z,941.51
2018-03-18T12:00:59.116Z,941.54
2018-03-18T12:01:59.149Z,941.51
2018-03-18T12:02:59.146Z,941.51
2018-03-18T12:03:59.160Z,941.53
2018-03-18T12:04:59.173Z,941.51
2018-03-18T12:05:59.188Z,941.52
2018-03-18T12:06:59.204Z,941.51
2018-03-18T12:07:59.220Z,941.49
2018-03-18T12:08:59.233Z,941.46
2018-03-18T12:09:59.303Z,941.49
2018-03-18T12:10:59.263Z,941.47
2018-03-18T12:11:59.277Z,941.46
2018-03-18T12:12:59.292Z,941.46
2018-03-18T12:13:59.307Z,941.39
2018-03-18T12:14:59.322Z,941.44
2018-03-18T12:15:59.336Z,941.46
2018-03-18T12:16:59.351Z,941.4
2018-03-18T12:17:59.373Z,941.54
2018-03-18T12:18:59.385Z,941.56
2018-03-18T12:19:59.394Z,941.55
2018-03-18T12:20:59.410Z,941.57
2018-03-18T12:21:59.425Z,941.59
2018-03-18T12:22:59.442Z,941.53
2018-03-18T12:23:59.456Z,941.52
2018-03-18T12:24:59.471Z,941.57
2018-03-18T12:25:59.486Z,941.61
2018-03-18T12:26:59.547Z,941.63
2018-03-18T12:27:59.560Z,941.55
2018-03-18T12:28:59.527Z,941.57
2018-03-18T12:29:59.546Z,941.52
2018-03-18T12:30:59.558Z,941.5